Time;durP1;ratioP1;P1;durP2;ratioP2;P2;SDS_P1;SDS_P2;PMS_P1;PMS_P2;Temp;Humidity;BMP_temperature;BMP_pressure;BME280_temperature;BME280_humidity;BME280_pressure;Samples;Min_cycle;Max_cycle;Signal;HPM_P1;HPM_P2
2022/04/20 00:04:01;;;;;;;0.40;0.37;;;;;;;;;;21034288;28;20695;-66
2022/04/20 00:14:03;;;;;;;0.70;0.40;;;;;;;;;;21061406;28;20224;-66
2022/04/20 00:24:05;;;;;;;1.47;0.70;;;14.90;85.00;;;;;;21050391;28;20205;-66
2022/04/20 00:34:07;;;;;;;1.43;0.43;;;;;;;;;;21033575;28;20373;-66
2022/04/20 00:44:10;;;;;;;1.43;0.70;;;14.50;91.40;;;;;;21033357;28;20208;-66
2022/04/20 00:54:12;;;;;;;0.40;0.30;;;;;;;;;;21016014;28;20654;-66
2022/04/20 01:04:14;;;;;;;1.00;0.40;;;;;;;;;;21031050;28;20757;-66
2022/04/20 01:14:25;;;;;;;0.57;0.43;;;;;;;;;;21063509;28;20224;-66
2022/04/20 01:24:45;;;;;;;0.60;0.50;;;;;;;;;;21047244;28;20193;-66
2022/04/20 01:34:47;;;;;;;1.17;0.50;;;;;;;;;;21044693;28;20213;-66
2022/04/20 01:44:49;;;;;;;1.90;0.67;;;;;;;;;;21043222;28;20242;-66
2022/04/20 01:55:10;;;;;;;1.37;0.63;;;;;;;;;;21031313;28;20216;-66
2022/04/20 02:05:30;;;;;;;0.80;0.40;;;;;;;;;;21049858;28;20276;-68
2022/04/20 02:15:59;;;;;;;2.30;0.50;;;;;;;;;;21042782;28;20297;-67
2022/04/20 02:26:11;;;;;;;0.63;0.37;;;;;;;;;;21043079;28;20212;-66
2022/04/20 02:36:13;;;;;;;0.83;0.50;;;;;;;;;;21024169;28;20224;-66
2022/04/20 02:46:15;;;;;;;1.13;0.50;;;;;;;;;;21023957;28;20200;-66
2022/04/20 02:56:17;;;;;;;0.77;0.57;;;;;;;;;;21040087;28;20274;-67
2022/04/20 03:06:22;;;;;;;1.33;0.60;;;;;;;;;;21030651;28;20781;-67
2022/04/20 03:16:24;;;;;;;0.87;0.60;;;;;;;;;;21038990;28;20216;-67
2022/04/20 03:26:27;;;;;;;0.77;0.47;;;12.40;91.30;;;;;;21040159;28;20568;-67
2022/04/20 03:36:41;;;;;;;1.40;0.53;;;;;;;;;;21041825;28;20209;-67
2022/04/20 03:46:43;;;;;;;1.03;0.60;;;;;;;;;;21037422;28;20201;-67
2022/04/20 04:07:07;;;;;;;0.77;0.50;;;;;;;;;;21037901;28;20216;-67
2022/04/20 04:17:09;;;;;;;0.80;0.40;;;;;;;;;;21050837;28;20255;-67
2022/04/20 04:27:12;;;;;;;0.83;0.43;;;;;;;;;;21035152;28;20274;-67
2022/04/20 04:37:17;;;;;;;2.37;0.60;;;;;;;;;;21049778;28;20688;-67
2022/04/20 04:57:45;;;;;;;0.83;0.40;;;;;;;;;;21036211;28;20213;-67
2022/04/20 05:07:48;;;;;;;0.87;0.47;;;;;;;;;;21027048;28;20276;-67
2022/04/20 05:17:52;;;;;;;0.60;0.40;;;;;;;;;;21030147;28;20204;-67
2022/04/20 05:27:55;;;;;;;1.13;0.50;;;;;;;;;;21042596;28;20269;-67
2022/04/20 05:48:31;;;;;;;1.00;0.47;;;;;;;;;;21006455;28;20228;-67
2022/04/20 05:58:34;;;;;;;3.43;0.50;;;;;;;;;;21009018;28;20278;-67
2022/04/20 06:08:36;;;;;;;0.97;0.67;;;;;;;;;;21041364;28;20228;-67
2022/04/20 06:18:48;;;;;;;3.50;0.70;;;;;;;;;;21029033;28;20329;-66
2022/04/20 06:29:07;;;;;;;1.40;0.80;;;;;;;;;;21040177;28;20561;-67
2022/04/20 06:39:39;;;;;;;1.03;0.57;;;;;;;;;;21014012;28;20224;-67
2022/04/20 06:50:03;;;;;;;1.47;0.90;;;;;;;;;;21040460;28;20236;-67
2022/04/20 07:00:33;;;;;;;1.37;0.70;;;;;;;;;;21007634;28;20785;-67
2022/04/20 07:11:07;;;;;;;1.03;0.57;;;14.00;97.60;;;;;;21088523;28;20714;-67
2022/04/20 07:21:12;;;;;;;3.83;0.70;;;;;;;;;;21102393;28;20204;-68
2022/04/20 07:31:33;;;;;;;0.87;0.50;;;;;;;;;;21072052;28;20818;-67
2022/04/20 07:42:05;;;;;;;0.70;0.53;;;14.40;90.60;;;;;;21004892;28;20302;-67
2022/04/20 07:52:38;;;;;;;1.33;0.50;;;;;;;;;;20991963;28;20232;-67
2022/04/20 08:03:14;;;;;;;0.67;0.50;;;;;;;;;;21037893;28;20220;-67
2022/04/20 08:23:41;;;;;;;1.07;0.63;;;;;;;;;;21040448;28;20644;-68
2022/04/20 08:33:43;;;;;;;0.53;0.40;;;15.10;88.80;;;;;;21019815;28;20266;-66
2022/04/20 08:43:45;;;;;;;0.33;0.27;;;;;;;;;;21022386;28;20259;-66
2022/04/20 08:53:47;;;;;;;1.23;0.60;;;;;;;;;;21017652;28;20220;-66
2022/04/20 09:03:50;;;;;;;0.70;0.50;;;;;;;;;;21045008;28;20737;-69
2022/04/20 09:13:54;;;;;;;0.87;0.60;;;;;;;;;;21044952;28;20587;-67
2022/04/20 09:24:09;;;;;;;1.27;0.60;;;;;;;;;;21025456;28;20208;-66
2022/04/20 09:34:29;;;;;;;1.00;0.60;;;16.30;71.80;;;;;;21026208;28;20756;-67
2022/04/20 09:44:32;;;;;;;1.93;0.67;;;;;;;;;;21034731;28;20568;-66
2022/04/20 09:54:36;;;;;;;1.00;0.60;;;16.80;78.90;;;;;;21006320;28;20221;-67
2022/04/20 10:04:41;;;;;;;0.83;0.57;;;16.90;80.70;;;;;;21038019;28;20274;-67
2022/04/20 10:25:14;;;;;;;1.53;0.50;;;18.00;70.90;;;;;;21048882;28;20258;-66
2022/04/20 10:35:16;;;;;;;0.77;0.60;;;;;;;;;;21054346;28;20224;-66
2022/04/20 10:45:22;;;;;;;1.17;0.70;;;;;;;;;;21018320;28;20204;-66
2022/04/20 10:55:44;;;;;;;0.77;0.50;;;17.90;75.90;;;;;;21055079;28;20281;-66
2022/04/20 11:05:49;;;;;;;0.50;0.40;;;18.00;66.40;;;;;;21041301;28;20225;-67
2022/04/20 11:25:56;;;;;;;1.73;0.50;;;;;;;;;;21033793;28;20216;-68
2022/04/20 11:35:58;;;;;;;0.60;0.40;;;;;;;;;;21015754;28;20228;-68
2022/04/20 11:46:00;;;;;;;0.60;0.50;;;;;;;;;;21068109;28;20200;-68
2022/04/20 11:56:03;;;;;;;0.80;0.50;;;19.90;76.70;;;;;;20994598;28;20762;-68
2022/04/20 12:06:07;;;;;;;0.43;0.40;;;20.10;74.60;;;;;;21014927;28;20220;-67
2022/04/20 12:16:13;;;;;;;0.77;0.50;;;19.80;71.00;;;;;;21017567;28;20274;-67
2022/04/20 12:26:15;;;;;;;1.00;0.60;;;;;;;;;;21043618;28;20225;-67
2022/04/20 12:36:17;;;;;;;1.17;0.60;;;;;;;;;;21089578;22;20505;-78
2022/04/20 12:46:34;;;;;;;1.30;0.50;;;20.50;73.10;;;;;;21081088;28;20695;-78
2022/04/20 13:07:04;;;;;;;0.40;0.40;;;;;;;;;;21148786;28;20545;-75
2022/04/20 13:17:09;;;;;;;1.10;0.60;;;;;;;;;;21109537;28;20587;-76
2022/04/20 13:37:31;;;;;;;0.40;0.40;;;;;;;;;;21068726;28;20278;-77
2022/04/20 13:47:33;;;;;;;2.87;0.60;;;21.10;65.40;;;;;;21057490;28;20218;-78
2022/04/20 13:57:35;;;;;;;1.40;0.63;;;20.60;70.90;;;;;;21046273;28;20686;-78
2022/04/20 14:07:38;;;;;;;0.80;0.40;;;20.30;71.80;;;;;;21040165;28;20270;-77
2022/04/20 14:17:42;;;;;;;1.40;0.60;;;;;;;;;;21118375;28;20211;-76
2022/04/20 14:38:08;;;;;;;0.63;0.50;;;;;;;;;;21071893;28;20223;-75
2022/04/20 14:48:10;;;;;;;2.77;0.60;;;;;;;;;;21050116;28;20218;-76
2022/04/20 14:58:11;;;;;;;1.93;0.50;;;;;;;;;;21057250;28;20211;-75
2022/04/20 15:08:14;;;;;;;1.67;0.80;;;;;;;;;;21101384;28;20255;-75
2022/04/20 15:18:16;;;;;;;1.17;0.70;;;;;;;;;;21036947;28;20240;-77
2022/04/20 15:28:18;;;;;;;1.17;0.50;;;;;;;;;;21046242;28;20212;-75
2022/04/20 15:38:19;;;;;;;0.87;0.53;;;;;;;;;;21031441;28;20214;-76
2022/04/20 15:48:21;;;;;;;1.07;0.60;;;;;;;;;;21012890;28;20216;-75
2022/04/20 16:09:03;;;;;;;1.30;0.70;;;;;;;;;;20909755;28;20631;-79
2022/04/20 16:19:05;;;;;;;0.93;0.60;;;;;;;;;;21011171;28;20263;-77
2022/04/20 16:29:06;;;;;;;1.60;0.70;;;;;;;;;;21054770;28;20207;-78
2022/04/20 16:39:08;;;;;;;0.70;0.50;;;;;;;;;;21085055;28;20229;-77
2022/04/20 16:49:12;;;;;;;1.00;0.60;;;;;;;;;;21059256;28;20217;-77
2022/04/20 16:59:14;;;;;;;4.20;1.03;;;;;;;;;;21055997;28;20243;-79
2022/04/20 17:09:15;;;;;;;1.33;0.63;;;;;;;;;;21015468;28;20220;-78
2022/04/20 17:19:17;;;;;;;1.47;0.80;;;;;;;;;;21004445;28;20278;-78
2022/04/20 17:29:21;;;;;;;0.93;0.50;;;;;;;;;;21051726;28;20833;-77
2022/04/20 17:39:28;;;;;;;0.77;0.57;;;;;;;;;;21043416;28;20206;-77
2022/04/20 17:49:30;;;;;;;1.77;0.70;;;;;;;;;;21058994;28;20270;-76
2022/04/20 17:59:32;;;;;;;0.60;0.50;;;;;;;;;;21057311;28;20201;-77
2022/04/20 18:09:34;;;;;;;0.90;0.40;;;;;;;;;;21065785;28;20296;-77
2022/04/20 18:19:36;;;;;;;0.93;0.60;;;;;;;;;;21147113;28;20643;-78
2022/04/20 18:29:38;;;;;;;1.60;0.80;;;;;;;;;;21104474;28;20216;-78
2022/04/20 18:39:40;;;;;;;1.93;0.63;;;;;;;;;;21045006;28;20594;-76
2022/04/20 18:49:45;;;;;;;1.07;0.77;;;;;;;;;;21081193;28;20254;-78
2022/04/20 18:59:47;;;;;;;1.27;0.60;;;;;;;;;;21126013;28;20215;-76
2022/04/20 19:09:56;;;;;;;3.80;1.40;;;17.50;78.30;;;;;;21087892;28;20277;-78
2022/04/20 19:20:00;;;;;;;1.90;1.20;;;;;;;;;;20983481;22;20233;-75
2022/04/20 19:30:05;;;;;;;4.83;1.80;;;;;;;;;;20955830;28;20808;-75
2022/04/20 19:40:07;;;;;;;3.03;1.60;;;17.10;73.80;;;;;;20968639;28;20290;-75
2022/04/20 19:50:10;;;;;;;4.27;1.70;;;16.90;80.80;;;;;;20957451;28;20217;-73
2022/04/20 20:00:12;;;;;;;3.77;1.20;;;;;;;;;;20947391;28;20209;-74
2022/04/20 20:10:14;;;;;;;1.40;0.90;;;;;;;;;;20950891;28;20229;-74
2022/04/20 20:20:16;;;;;;;2.03;1.27;;;;;;;;;;20972503;28;20530;-75
2022/04/20 20:30:18;;;;;;;2.80;1.40;;;;;;;;;;20980295;28;20272;-75
2022/04/20 20:40:19;;;;;;;1.63;0.83;;;;;;;;;;20989638;28;20330;-74
2022/04/20 20:50:33;;;;;;;2.20;0.87;;;;;;;;;;20986890;28;20209;-75
2022/04/20 21:00:35;;;;;;;1.27;0.80;;;;;;;;;;20970737;28;20205;-75
2022/04/20 21:10:37;;;;;;;1.07;0.87;;;;;;;;;;20987169;28;20267;-74
2022/04/20 21:20:38;;;;;;;1.33;0.60;;;;;;;;;;20986849;28;20225;-75
2022/04/20 21:30:40;;;;;;;2.90;0.80;;;16.00;83.00;;;;;;20985517;28;20267;-75
2022/04/20 21:40:55;;;;;;;1.20;0.87;;;;;;;;;;20984348;28;20197;-75
2022/04/20 21:50:57;;;;;;;1.70;0.70;;;;;;;;;;20918410;28;20296;-75
2022/04/20 22:00:59;;;;;;;0.87;0.67;;;;;;;;;;20899319;28;20264;-75
2022/04/20 22:21:21;;;;;;;1.37;0.60;;;;;;;;;;20906279;28;20194;-74
2022/04/20 22:31:23;;;;;;;1.40;0.90;;;;;;;;;;20904013;28;20213;-74
2022/04/20 22:41:25;;;;;;;3.17;0.87;;;14.90;99.90;;;;;;20975422;28;20217;-75
2022/04/20 22:51:29;;;;;;;1.17;0.73;;;14.70;92.90;;;;;;20913980;28;20778;-75
2022/04/20 23:01:31;;;;;;;1.33;0.77;;;;;;;;;;20904052;28;20222;-74
2022/04/20 23:11:34;;;;;;;2.20;0.70;;;;;;;;;;20903433;28;20559;-75
2022/04/20 23:21:35;;;;;;;1.83;1.00;;;;;;;;;;20908005;28;20209;-75
2022/04/20 23:31:37;;;;;;;1.97;0.80;;;;;;;;;;20938667;28;20217;-74
2022/04/20 23:41:39;;;;;;;1.67;0.80;;;;;;;;;;20919654;28;20244;-75
2022/04/20 23:51:41;;;;;;;0.83;0.50;;;;;;;;;;20917837;28;20260;-74
